sensor_id;sensor_type;location;lat;lon;timestamp;temperature;humidity
17178;DHT22;8704;52.006;4.374;2023-03-23T00:02:14;11.80;1.00
17178;DHT22;8704;52.006;4.374;2023-03-23T00:04:41;11.70;38.20
17178;DHT22;8704;52.006;4.374;2023-03-23T00:07:09;11.80;23.90
17178;DHT22;8704;52.006;4.374;2023-03-23T00:09:39;11.70;44.80
17178;DHT22;8704;52.006;4.374;2023-03-23T00:12:07;11.70;1.00
17178;DHT22;8704;52.006;4.374;2023-03-23T00:14:34;11.80;1.00
17178;DHT22;8704;52.006;4.374;2023-03-23T00:17:08;11.90;1.00
17178;DHT22;8704;52.006;4.374;2023-03-23T00:19:37;11.90;1.00
17178;DHT22;8704;52.006;4.374;2023-03-23T00:22:12;11.80;1.00
17178;DHT22;8704;52.006;4.374;2023-03-23T00:24:40;11.80;1.00
17178;DHT22;8704;52.006;4.374;2023-03-23T00:27:07;11.80;1.00
17178;DHT22;8704;52.006;4.374;2023-03-23T00:29:38;11.80;1.00
17178;DHT22;8704;52.006;4.374;2023-03-23T00:32:06;11.80;1.00
17178;DHT22;8704;52.006;4.374;2023-03-23T00:34:38;11.70;20.10
17178;DHT22;8704;52.006;4.374;2023-03-23T00:37:06;11.70;32.50
17178;DHT22;8704;52.006;4.374;2023-03-23T00:39:34;11.60;14.50
17178;DHT22;8704;52.006;4.374;2023-03-23T00:42:04;11.80;1.00
17178;DHT22;8704;52.006;4.374;2023-03-23T00:44:32;11.60;1.00
17178;DHT22;8704;52.006;4.374;2023-03-23T00:47:00;11.70;1.00
17178;DHT22;8704;52.006;4.374;2023-03-23T00:49:28;11.70;1.00
17178;DHT22;8704;52.006;4.374;2023-03-23T00:51:57;11.70;1.00
17178;DHT22;8704;52.006;4.374;2023-03-23T00:54:25;11.80;1.00
17178;DHT22;8704;52.006;4.374;2023-03-23T00:56:52;11.90;1.00
17178;DHT22;8704;52.006;4.374;2023-03-23T00:59:21;11.70;1.00
17178;DHT22;8704;52.006;4.374;2023-03-23T01:01:48;11.70;1.00
17178;DHT22;8704;52.006;4.374;2023-03-23T01:04:16;11.70;1.00
17178;DHT22;8704;52.006;4.374;2023-03-23T01:06:44;11.80;1.00
17178;DHT22;8704;52.006;4.374;2023-03-23T01:09:16;11.70;1.00
17178;DHT22;8704;52.006;4.374;2023-03-23T01:11:45;11.70;1.00
17178;DHT22;8704;52.006;4.374;2023-03-23T01:14:13;11.70;1.00
17178;DHT22;8704;52.006;4.374;2023-03-23T01:16:42;11.80;1.00
17178;DHT22;8704;52.006;4.374;2023-03-23T01:19:09;11.70;1.00
17178;DHT22;8704;52.006;4.374;2023-03-23T01:21:36;11.70;1.00
17178;DHT22;8704;52.006;4.374;2023-03-23T01:24:04;11.70;1.00
17178;DHT22;8704;52.006;4.374;2023-03-23T01:26:31;11.70;1.00
17178;DHT22;8704;52.006;4.374;2023-03-23T01:28:58;12.20;1.00
17178;DHT22;8704;52.006;4.374;2023-03-23T01:31:26;11.80;1.00
17178;DHT22;8704;52.006;4.374;2023-03-23T01:33:54;11.70;1.00
17178;DHT22;8704;52.006;4.374;2023-03-23T01:36:23;11.80;1.00
17178;DHT22;8704;52.006;4.374;2023-03-23T01:38:52;11.80;1.00
17178;DHT22;8704;52.006;4.374;2023-03-23T01:41:19;12.10;1.00
17178;DHT22;8704;52.006;4.374;2023-03-23T01:43:58;11.90;1.00
17178;DHT22;8704;52.006;4.374;2023-03-23T01:46:28;11.70;1.00
17178;DHT22;8704;52.006;4.374;2023-03-23T01:49:01;11.80;1.00
17178;DHT22;8704;52.006;4.374;2023-03-23T01:51:33;11.80;1.00
17178;DHT22;8704;52.006;4.374;2023-03-23T01:54:03;12.60;1.00
17178;DHT22;8704;52.006;4.374;2023-03-23T01:56:34;11.80;1.00
17178;DHT22;8704;52.006;4.374;2023-03-23T01:59:04;11.80;1.00
17178;DHT22;8704;52.006;4.374;2023-03-23T02:01:31;12.60;1.00
17178;DHT22;8704;52.006;4.374;2023-03-23T02:04:03;11.60;1.00
17178;DHT22;8704;52.006;4.374;2023-03-23T02:06:31;11.80;1.00
17178;DHT22;8704;52.006;4.374;2023-03-23T02:08:59;11.70;1.00
17178;DHT22;8704;52.006;4.374;2023-03-23T02:11:26;11.70;1.00
17178;DHT22;8704;52.006;4.374;2023-03-23T02:13:54;11.60;1.00
17178;DHT22;8704;52.006;4.374;2023-03-23T02:16:28;11.70;1.00
17178;DHT22;8704;52.006;4.374;2023-03-23T02:19:07;11.70;1.00
17178;DHT22;8704;52.006;4.374;2023-03-23T02:22:02;11.60;1.00
17178;DHT22;8704;52.006;4.374;2023-03-23T02:24:53;11.60;1.00
17178;DHT22;8704;52.006;4.374;2023-03-23T02:27:39;11.70;1.00
17178;DHT22;8704;52.006;4.374;2023-03-23T02:30:18;11.80;1.00
17178;DHT22;8704;52.006;4.374;2023-03-23T02:33:15;11.70;1.00
17178;DHT22;8704;52.006;4.374;2023-03-23T02:35:49;11.60;1.00
17178;DHT22;8704;52.006;4.374;2023-03-23T02:38:22;11.60;1.00
17178;DHT22;8704;52.006;4.374;2023-03-23T02:40:51;11.70;1.00
17178;DHT22;8704;52.006;4.374;2023-03-23T02:43:22;11.70;1.00
17178;DHT22;8704;52.006;4.374;2023-03-23T02:45:51;11.70;1.00
17178;DHT22;8704;52.006;4.374;2023-03-23T02:48:22;11.70;1.00
17178;DHT22;8704;52.006;4.374;2023-03-23T02:50:51;11.70;1.00
17178;DHT22;8704;52.006;4.374;2023-03-23T02:53:22;11.70;1.00
17178;DHT22;8704;52.006;4.374;2023-03-23T02:55:51;11.80;1.00
17178;DHT22;8704;52.006;4.374;2023-03-23T02:58:20;11.60;1.00
17178;DHT22;8704;52.006;4.374;2023-03-23T03:00:49;11.80;1.00
17178;DHT22;8704;52.006;4.374;2023-03-23T03:03:18;11.80;1.00
17178;DHT22;8704;52.006;4.374;2023-03-23T03:05:53;11.80;23.40
17178;DHT22;8704;52.006;4.374;2023-03-23T03:08:29;11.70;99.40
17178;DHT22;8704;52.006;4.374;2023-03-23T03:11:02;11.80;99.90
17178;DHT22;8704;52.006;4.374;2023-03-23T03:13:36;11.70;98.20
17178;DHT22;8704;52.006;4.374;2023-03-23T03:16:10;11.70;99.90
17178;DHT22;8704;52.006;4.374;2023-03-23T03:18:45;11.60;99.90
17178;DHT22;8704;52.006;4.374;2023-03-23T03:21:15;11.60;99.90
17178;DHT22;8704;52.006;4.374;2023-03-23T03:23:47;11.50;1.00
17178;DHT22;8704;52.006;4.374;2023-03-23T03:26:15;11.40;1.00
17178;DHT22;8704;52.006;4.374;2023-03-23T03:28:47;11.40;1.00
17178;DHT22;8704;52.006;4.374;2023-03-23T03:31:17;11.40;1.00
17178;DHT22;8704;52.006;4.374;2023-03-23T03:33:45;11.40;1.00
17178;DHT22;8704;52.006;4.374;2023-03-23T03:36:18;11.30;1.00
17178;DHT22;8704;52.006;4.374;2023-03-23T03:38:47;11.30;1.00
17178;DHT22;8704;52.006;4.374;2023-03-23T03:41:14;11.30;1.00
17178;DHT22;8704;52.006;4.374;2023-03-23T03:43:41;11.20;1.00
17178;DHT22;8704;52.006;4.374;2023-03-23T03:46:08;11.20;1.00
17178;DHT22;8704;52.006;4.374;2023-03-23T03:48:35;11.20;1.00
17178;DHT22;8704;52.006;4.374;2023-03-23T03:51:03;11.20;1.00
17178;DHT22;8704;52.006;4.374;2023-03-23T03:53:31;11.20;1.00
17178;DHT22;8704;52.006;4.374;2023-03-23T03:55:58;11.20;1.00
17178;DHT22;8704;52.006;4.374;2023-03-23T03:58:27;11.10;1.00
17178;DHT22;8704;52.006;4.374;2023-03-23T04:00:58;11.10;1.00
17178;DHT22;8704;52.006;4.374;2023-03-23T04:03:25;11.10;1.00
17178;DHT22;8704;52.006;4.374;2023-03-23T04:05:53;11.10;1.00
17178;DHT22;8704;52.006;4.374;2023-03-23T04:08:21;11.10;1.00
17178;DHT22;8704;52.006;4.374;2023-03-23T04:10:50;11.10;1.00
17178;DHT22;8704;52.006;4.374;2023-03-23T04:13:17;11.00;1.00
17178;DHT22;8704;52.006;4.374;2023-03-23T04:15:45;11.10;1.00
17178;DHT22;8704;52.006;4.374;2023-03-23T04:18:12;11.00;1.00
17178;DHT22;8704;52.006;4.374;2023-03-23T04:20:43;11.10;1.00
17178;DHT22;8704;52.006;4.374;2023-03-23T04:23:10;11.00;1.00
17178;DHT22;8704;52.006;4.374;2023-03-23T04:25:37;11.00;1.00
17178;DHT22;8704;52.006;4.374;2023-03-23T04:28:07;11.00;1.00
17178;DHT22;8704;52.006;4.374;2023-03-23T04:30:35;11.00;1.00
17178;DHT22;8704;52.006;4.374;2023-03-23T04:33:02;11.00;1.00
17178;DHT22;8704;52.006;4.374;2023-03-23T04:35:30;11.00;1.00
17178;DHT22;8704;52.006;4.374;2023-03-23T04:37:57;11.00;1.00
17178;DHT22;8704;52.006;4.374;2023-03-23T04:40:24;11.70;1.00
17178;DHT22;8704;52.006;4.374;2023-03-23T04:42:51;11.00;1.00
17178;DHT22;8704;52.006;4.374;2023-03-23T04:45:24;10.90;1.00
17178;DHT22;8704;52.006;4.374;2023-03-23T04:47:52;10.90;1.00
17178;DHT22;8704;52.006;4.374;2023-03-23T04:50:24;11.10;1.00
17178;DHT22;8704;52.006;4.374;2023-03-23T04:52:51;10.90;1.00
17178;DHT22;8704;52.006;4.374;2023-03-23T04:55:20;10.90;1.00
17178;DHT22;8704;52.006;4.374;2023-03-23T04:57:47;10.90;1.00
17178;DHT22;8704;52.006;4.374;2023-03-23T05:00:15;11.20;1.00
17178;DHT22;8704;52.006;4.374;2023-03-23T05:02:45;10.90;1.00
17178;DHT22;8704;52.006;4.374;2023-03-23T05:05:13;11.20;1.00
17178;DHT22;8704;52.006;4.374;2023-03-23T05:07:41;10.80;1.00
17178;DHT22;8704;52.006;4.374;2023-03-23T05:10:10;10.80;1.00
17178;DHT22;8704;52.006;4.374;2023-03-23T05:12:37;11.60;1.00
17178;DHT22;8704;52.006;4.374;2023-03-23T05:15:06;10.80;1.00
17178;DHT22;8704;52.006;4.374;2023-03-23T05:17:33;10.80;1.00
17178;DHT22;8704;52.006;4.374;2023-03-23T05:20:03;10.70;1.00
17178;DHT22;8704;52.006;4.374;2023-03-23T05:22:31;10.70;1.00
17178;DHT22;8704;52.006;4.374;2023-03-23T05:24:58;10.70;1.00
17178;DHT22;8704;52.006;4.374;2023-03-23T05:27:28;10.70;1.00
17178;DHT22;8704;52.006;4.374;2023-03-23T05:29:56;10.70;1.00
17178;DHT22;8704;52.006;4.374;2023-03-23T05:32:24;10.60;1.00
17178;DHT22;8704;52.006;4.374;2023-03-23T05:34:55;10.70;1.00
17178;DHT22;8704;52.006;4.374;2023-03-23T05:37:24;10.70;1.00
17178;DHT22;8704;52.006;4.374;2023-03-23T05:39:52;10.70;1.00
17178;DHT22;8704;52.006;4.374;2023-03-23T05:42:21;10.70;1.00
17178;DHT22;8704;52.006;4.374;2023-03-23T05:44:48;10.70;1.00
17178;DHT22;8704;52.006;4.374;2023-03-23T05:47:15;11.60;1.00
17178;DHT22;8704;52.006;4.374;2023-03-23T05:49:42;11.60;1.00
17178;DHT22;8704;52.006;4.374;2023-03-23T05:52:09;10.70;1.00
17178;DHT22;8704;52.006;4.374;2023-03-23T05:54:38;10.80;1.00
17178;DHT22;8704;52.006;4.374;2023-03-23T05:57:05;10.80;1.00
17178;DHT22;8704;52.006;4.374;2023-03-23T05:59:32;10.60;1.00
17178;DHT22;8704;52.006;4.374;2023-03-23T06:01:59;10.70;1.00
17178;DHT22;8704;52.006;4.374;2023-03-23T06:04:26;10.50;1.00
17178;DHT22;8704;52.006;4.374;2023-03-23T06:06:54;10.60;1.00
17178;DHT22;8704;52.006;4.374;2023-03-23T06:09:21;10.60;1.00
17178;DHT22;8704;52.006;4.374;2023-03-23T06:11:52;10.70;1.00
17178;DHT22;8704;52.006;4.374;2023-03-23T06:14:19;10.60;1.00
17178;DHT22;8704;52.006;4.374;2023-03-23T06:16:47;10.70;1.00
17178;DHT22;8704;52.006;4.374;2023-03-23T06:19:14;10.70;1.00
17178;DHT22;8704;52.006;4.374;2023-03-23T06:21:41;10.70;1.00
17178;DHT22;8704;52.006;4.374;2023-03-23T06:24:08;10.70;1.00
17178;DHT22;8704;52.006;4.374;2023-03-23T06:26:37;10.70;1.00
17178;DHT22;8704;52.006;4.374;2023-03-23T06:29:06;10.70;1.00
17178;DHT22;8704;52.006;4.374;2023-03-23T06:31:37;10.90;1.00
17178;DHT22;8704;52.006;4.374;2023-03-23T06:34:05;10.90;1.00
17178;DHT22;8704;52.006;4.374;2023-03-23T06:36:32;10.70;1.00
17178;DHT22;8704;52.006;4.374;2023-03-23T06:39:00;10.70;1.00
17178;DHT22;8704;52.006;4.374;2023-03-23T06:41:30;10.70;1.00
17178;DHT22;8704;52.006;4.374;2023-03-23T06:43:57;10.80;1.00
17178;DHT22;8704;52.006;4.374;2023-03-23T06:46:26;10.80;99.90
17178;DHT22;8704;52.006;4.374;2023-03-23T06:48:53;10.90;99.90
17178;DHT22;8704;52.006;4.374;2023-03-23T06:51:21;10.80;1.00
17178;DHT22;8704;52.006;4.374;2023-03-23T06:53:48;10.70;1.00
17178;DHT22;8704;52.006;4.374;2023-03-23T06:56:15;10.70;99.90
17178;DHT22;8704;52.006;4.374;2023-03-23T06:58:42;10.80;99.90
17178;DHT22;8704;52.006;4.374;2023-03-23T07:01:11;10.80;99.90
17178;DHT22;8704;52.006;4.374;2023-03-23T07:03:39;10.70;99.90
17178;DHT22;8704;52.006;4.374;2023-03-23T07:06:07;10.70;99.90
17178;DHT22;8704;52.006;4.374;2023-03-23T07:08:35;10.70;99.90
17178;DHT22;8704;52.006;4.374;2023-03-23T07:11:02;10.70;99.90
17178;DHT22;8704;52.006;4.374;2023-03-23T07:13:29;10.70;99.90
17178;DHT22;8704;52.006;4.374;2023-03-23T07:15:57;11.00;99.90
17178;DHT22;8704;52.006;4.374;2023-03-23T07:18:24;10.70;99.90
17178;DHT22;8704;52.006;4.374;2023-03-23T07:20:54;10.60;99.90
17178;DHT22;8704;52.006;4.374;2023-03-23T07:23:21;10.60;99.90
17178;DHT22;8704;52.006;4.374;2023-03-23T07:25:48;10.80;99.90
17178;DHT22;8704;52.006;4.374;2023-03-23T07:28:15;10.60;99.90
17178;DHT22;8704;52.006;4.374;2023-03-23T07:30:43;11.00;99.90
17178;DHT22;8704;52.006;4.374;2023-03-23T07:33:10;10.60;99.90
17178;DHT22;8704;52.006;4.374;2023-03-23T07:35:38;10.70;99.90
17178;DHT22;8704;52.006;4.374;2023-03-23T07:38:06;10.50;99.90
17178;DHT22;8704;52.006;4.374;2023-03-23T07:40:34;10.80;99.90
17178;DHT22;8704;52.006;4.374;2023-03-23T07:43:03;10.70;99.90
17178;DHT22;8704;52.006;4.374;2023-03-23T07:45:30;10.80;99.90
17178;DHT22;8704;52.006;4.374;2023-03-23T07:47:57;11.00;99.90
17178;DHT22;8704;52.006;4.374;2023-03-23T07:50:25;10.90;99.90
17178;DHT22;8704;52.006;4.374;2023-03-23T07:52:54;11.00;99.90
17178;DHT22;8704;52.006;4.374;2023-03-23T07:55:23;11.00;99.90
17178;DHT22;8704;52.006;4.374;2023-03-23T07:57:51;11.00;99.90
17178;DHT22;8704;52.006;4.374;2023-03-23T08:00:20;11.80;99.90
17178;DHT22;8704;52.006;4.374;2023-03-23T08:02:52;11.00;99.90
17178;DHT22;8704;52.006;4.374;2023-03-23T08:05:21;11.10;99.90
17178;DHT22;8704;52.006;4.374;2023-03-23T08:07:49;11.10;99.90
17178;DHT22;8704;52.006;4.374;2023-03-23T08:10:17;11.20;99.90
17178;DHT22;8704;52.006;4.374;2023-03-23T08:12:46;11.10;99.90
17178;DHT22;8704;52.006;4.374;2023-03-23T08:15:13;11.30;99.90
17178;DHT22;8704;52.006;4.374;2023-03-23T08:17:41;11.10;99.90
17178;DHT22;8704;52.006;4.374;2023-03-23T08:20:10;11.20;99.90
17178;DHT22;8704;52.006;4.374;2023-03-23T08:22:39;11.20;99.90
17178;DHT22;8704;52.006;4.374;2023-03-23T08:25:09;11.30;99.90
17178;DHT22;8704;52.006;4.374;2023-03-23T08:27:36;11.30;99.90
17178;DHT22;8704;52.006;4.374;2023-03-23T08:30:12;11.30;99.90
17178;DHT22;8704;52.006;4.374;2023-03-23T08:32:40;11.40;99.90
17178;DHT22;8704;52.006;4.374;2023-03-23T08:35:07;11.40;99.90
17178;DHT22;8704;52.006;4.374;2023-03-23T08:37:37;11.40;99.90
17178;DHT22;8704;52.006;4.374;2023-03-23T08:40:06;11.50;99.90
17178;DHT22;8704;52.006;4.374;2023-03-23T08:42:36;11.50;33.20
17178;DHT22;8704;52.006;4.374;2023-03-23T08:45:05;11.60;1.00
17178;DHT22;8704;52.006;4.374;2023-03-23T08:47:34;11.60;1.00
17178;DHT22;8704;52.006;4.374;2023-03-23T08:50:01;11.70;1.00
17178;DHT22;8704;52.006;4.374;2023-03-23T08:52:28;11.80;1.00
17178;DHT22;8704;52.006;4.374;2023-03-23T08:54:56;11.80;14.50
17178;DHT22;8704;52.006;4.374;2023-03-23T08:57:23;11.90;1.00
17178;DHT22;8704;52.006;4.374;2023-03-23T08:59:51;11.90;1.00
17178;DHT22;8704;52.006;4.374;2023-03-23T09:02:20;12.00;1.00
17178;DHT22;8704;52.006;4.374;2023-03-23T09:04:50;12.10;1.00
17178;DHT22;8704;52.006;4.374;2023-03-23T09:07:18;12.10;1.00
17178;DHT22;8704;52.006;4.374;2023-03-23T09:09:45;12.00;1.00
17178;DHT22;8704;52.006;4.374;2023-03-23T09:12:13;12.00;1.00
17178;DHT22;8704;52.006;4.374;2023-03-23T09:14:39;12.10;1.00
17178;DHT22;8704;52.006;4.374;2023-03-23T09:17:07;12.10;1.00
17178;DHT22;8704;52.006;4.374;2023-03-23T09:19:34;12.20;1.00
17178;DHT22;8704;52.006;4.374;2023-03-23T09:22:03;12.20;1.00
17178;DHT22;8704;52.006;4.374;2023-03-23T09:24:30;12.30;1.00
17178;DHT22;8704;52.006;4.374;2023-03-23T09:26:57;12.30;1.00
17178;DHT22;8704;52.006;4.374;2023-03-23T09:29:25;12.30;1.00
17178;DHT22;8704;52.006;4.374;2023-03-23T09:31:52;12.20;1.00
17178;DHT22;8704;52.006;4.374;2023-03-23T09:34:19;12.20;1.00
17178;DHT22;8704;52.006;4.374;2023-03-23T09:36:48;12.30;1.00
17178;DHT22;8704;52.006;4.374;2023-03-23T09:39:16;12.40;1.00
17178;DHT22;8704;52.006;4.374;2023-03-23T09:42:02;12.40;1.00
17178;DHT22;8704;52.006;4.374;2023-03-23T09:44:42;12.60;1.00
17178;DHT22;8704;52.006;4.374;2023-03-23T09:47:16;12.70;1.00
17178;DHT22;8704;52.006;4.374;2023-03-23T09:49:50;12.80;1.00
17178;DHT22;8704;52.006;4.374;2023-03-23T09:52:19;12.80;1.00
17178;DHT22;8704;52.006;4.374;2023-03-23T09:54:50;12.80;1.00
17178;DHT22;8704;52.006;4.374;2023-03-23T09:57:24;12.90;1.00
17178;DHT22;8704;52.006;4.374;2023-03-23T09:59:56;12.90;1.00
17178;DHT22;8704;52.006;4.374;2023-03-23T10:02:28;13.00;1.00
17178;DHT22;8704;52.006;4.374;2023-03-23T10:05:07;13.20;1.00
17178;DHT22;8704;52.006;4.374;2023-03-23T10:07:38;13.10;99.90
17178;DHT22;8704;52.006;4.374;2023-03-23T10:10:12;13.10;99.90
17178;DHT22;8704;52.006;4.374;2023-03-23T10:12:43;13.10;99.90
17178;DHT22;8704;52.006;4.374;2023-03-23T10:15:14;13.20;1.00
17178;DHT22;8704;52.006;4.374;2023-03-23T10:17:48;13.40;1.00
17178;DHT22;8704;52.006;4.374;2023-03-23T10:20:33;13.60;1.00
17178;DHT22;8704;52.006;4.374;2023-03-23T10:23:11;13.60;1.00
17178;DHT22;8704;52.006;4.374;2023-03-23T10:25:42;13.60;99.90
17178;DHT22;8704;52.006;4.374;2023-03-23T10:28:12;13.70;99.90
17178;DHT22;8704;52.006;4.374;2023-03-23T10:30:41;13.80;99.90
17178;DHT22;8704;52.006;4.374;2023-03-23T10:33:14;13.80;99.90
17178;DHT22;8704;52.006;4.374;2023-03-23T10:35:45;13.80;99.90
17178;DHT22;8704;52.006;4.374;2023-03-23T10:38:16;13.80;99.90
17178;DHT22;8704;52.006;4.374;2023-03-23T10:40:49;13.90;99.90
17178;DHT22;8704;52.006;4.374;2023-03-23T10:43:18;14.00;99.90
17178;DHT22;8704;52.006;4.374;2023-03-23T10:45:54;14.20;1.00
17178;DHT22;8704;52.006;4.374;2023-03-23T10:48:27;14.30;1.00
17178;DHT22;8704;52.006;4.374;2023-03-23T10:51:01;14.30;1.00
17178;DHT22;8704;52.006;4.374;2023-03-23T10:53:34;14.50;99.90
17178;DHT22;8704;52.006;4.374;2023-03-23T10:56:05;14.50;99.90
17178;DHT22;8704;52.006;4.374;2023-03-23T10:58:46;14.50;99.90
17178;DHT22;8704;52.006;4.374;2023-03-23T11:01:13;14.70;99.90
17178;DHT22;8704;52.006;4.374;2023-03-23T11:03:43;14.70;99.90
17178;DHT22;8704;52.006;4.374;2023-03-23T11:06:18;14.60;99.90
17178;DHT22;8704;52.006;4.374;2023-03-23T11:08:52;14.70;99.90
17178;DHT22;8704;52.006;4.374;2023-03-23T11:11:25;14.70;99.90
17178;DHT22;8704;52.006;4.374;2023-03-23T11:13:57;14.80;99.90
17178;DHT22;8704;52.006;4.374;2023-03-23T11:16:27;14.90;99.90
17178;DHT22;8704;52.006;4.374;2023-03-23T11:18:57;15.00;99.90
17178;DHT22;8704;52.006;4.374;2023-03-23T11:21:25;14.90;99.90
17178;DHT22;8704;52.006;4.374;2023-03-23T11:23:55;14.80;99.90
17178;DHT22;8704;52.006;4.374;2023-03-23T11:26:27;14.90;99.90
17178;DHT22;8704;52.006;4.374;2023-03-23T11:28:57;15.00;99.90
17178;DHT22;8704;52.006;4.374;2023-03-23T11:31:29;15.00;99.90
17178;DHT22;8704;52.006;4.374;2023-03-23T11:33:59;15.10;99.90
17178;DHT22;8704;52.006;4.374;2023-03-23T11:36:33;15.10;99.90
17178;DHT22;8704;52.006;4.374;2023-03-23T11:39:02;15.10;99.90
17178;DHT22;8704;52.006;4.374;2023-03-23T11:41:37;15.00;99.90
17178;DHT22;8704;52.006;4.374;2023-03-23T11:44:10;14.90;99.90
17178;DHT22;8704;52.006;4.374;2023-03-23T11:46:46;14.90;99.90
17178;DHT22;8704;52.006;4.374;2023-03-23T11:49:22;15.00;99.90
17178;DHT22;8704;52.006;4.374;2023-03-23T11:51:55;15.00;99.90
17178;DHT22;8704;52.006;4.374;2023-03-23T11:54:28;15.20;99.90
17178;DHT22;8704;52.006;4.374;2023-03-23T11:56:58;15.50;99.90
17178;DHT22;8704;52.006;4.374;2023-03-23T11:59:31;15.50;99.90
17178;DHT22;8704;52.006;4.374;2023-03-23T12:02:12;15.70;99.90
17178;DHT22;8704;52.006;4.374;2023-03-23T12:04:57;15.90;99.90
17178;DHT22;8704;52.006;4.374;2023-03-23T12:07:51;16.00;99.90
17178;DHT22;8704;52.006;4.374;2023-03-23T12:10:27;15.90;99.90
17178;DHT22;8704;52.006;4.374;2023-03-23T12:13:17;16.00;99.90
17178;DHT22;8704;52.006;4.374;2023-03-23T12:15:51;16.20;99.90
17178;DHT22;8704;52.006;4.374;2023-03-23T12:18:29;16.30;99.90
17178;DHT22;8704;52.006;4.374;2023-03-23T12:21:04;16.10;99.90
17178;DHT22;8704;52.006;4.374;2023-03-23T12:23:38;16.10;99.90
17178;DHT22;8704;52.006;4.374;2023-03-23T12:26:14;16.00;99.90
17178;DHT22;8704;52.006;4.374;2023-03-23T12:29:01;16.00;99.90
17178;DHT22;8704;52.006;4.374;2023-03-23T12:31:38;16.20;99.90
17178;DHT22;8704;52.006;4.374;2023-03-23T12:34:12;16.20;99.90
17178;DHT22;8704;52.006;4.374;2023-03-23T12:36:53;16.00;99.90
17178;DHT22;8704;52.006;4.374;2023-03-23T12:39:47;16.20;99.90
17178;DHT22;8704;52.006;4.374;2023-03-23T12:42:23;15.90;99.90
17178;DHT22;8704;52.006;4.374;2023-03-23T12:44:55;15.70;99.90
17178;DHT22;8704;52.006;4.374;2023-03-23T12:47:35;15.70;99.90
17178;DHT22;8704;52.006;4.374;2023-03-23T12:50:10;15.70;99.90
17178;DHT22;8704;52.006;4.374;2023-03-23T12:52:42;15.40;99.90
17178;DHT22;8704;52.006;4.374;2023-03-23T12:55:16;15.60;99.90
17178;DHT22;8704;52.006;4.374;2023-03-23T12:57:49;15.60;99.90
17178;DHT22;8704;52.006;4.374;2023-03-23T13:00:23;15.70;99.90
17178;DHT22;8704;52.006;4.374;2023-03-23T13:02:57;15.90;99.90
17178;DHT22;8704;52.006;4.374;2023-03-23T13:05:36;15.70;99.90
17178;DHT22;8704;52.006;4.374;2023-03-23T13:08:10;15.70;99.90
17178;DHT22;8704;52.006;4.374;2023-03-23T13:10:41;15.90;99.90
17178;DHT22;8704;52.006;4.374;2023-03-23T13:13:14;16.00;99.90
17178;DHT22;8704;52.006;4.374;2023-03-23T13:15:49;16.20;99.90
17178;DHT22;8704;52.006;4.374;2023-03-23T13:18:27;16.40;99.90
17178;DHT22;8704;52.006;4.374;2023-03-23T13:21:06;16.70;99.90
17178;DHT22;8704;52.006;4.374;2023-03-23T13:23:36;16.80;99.90
17178;DHT22;8704;52.006;4.374;2023-03-23T13:26:07;16.70;99.90
17178;DHT22;8704;52.006;4.374;2023-03-23T13:28:49;17.00;99.90
17178;DHT22;8704;52.006;4.374;2023-03-23T13:31:23;17.10;99.90
17178;DHT22;8704;52.006;4.374;2023-03-23T13:33:53;17.20;99.90
17178;DHT22;8704;52.006;4.374;2023-03-23T13:36:29;17.20;99.90
17178;DHT22;8704;52.006;4.374;2023-03-23T13:38:59;17.40;99.90
17178;DHT22;8704;52.006;4.374;2023-03-23T13:41:27;17.40;99.90
17178;DHT22;8704;52.006;4.374;2023-03-23T13:44:07;17.30;99.90
17178;DHT22;8704;52.006;4.374;2023-03-23T13:46:54;17.00;99.90
17178;DHT22;8704;52.006;4.374;2023-03-23T13:49:22;16.90;99.90
17178;DHT22;8704;52.006;4.374;2023-03-23T13:52:14;17.00;99.90
17178;DHT22;8704;52.006;4.374;2023-03-23T13:54:44;17.10;99.90
17178;DHT22;8704;52.006;4.374;2023-03-23T13:57:35;17.50;99.90
17178;DHT22;8704;52.006;4.374;2023-03-23T14:00:36;17.60;99.90
17178;DHT22;8704;52.006;4.374;2023-03-23T14:03:12;17.70;99.90
17178;DHT22;8704;52.006;4.374;2023-03-23T14:05:41;18.10;99.90
17178;DHT22;8704;52.006;4.374;2023-03-23T14:08:13;18.10;99.90
17178;DHT22;8704;52.006;4.374;2023-03-23T14:10:43;18.40;99.90
17178;DHT22;8704;52.006;4.374;2023-03-23T14:13:16;18.40;99.90
17178;DHT22;8704;52.006;4.374;2023-03-23T14:15:55;18.20;99.90
17178;DHT22;8704;52.006;4.374;2023-03-23T14:18:26;18.40;99.90
17178;DHT22;8704;52.006;4.374;2023-03-23T14:20:55;18.30;99.90
17178;DHT22;8704;52.006;4.374;2023-03-23T14:23:24;18.40;99.90
17178;DHT22;8704;52.006;4.374;2023-03-23T14:25:55;18.50;99.90
17178;DHT22;8704;52.006;4.374;2023-03-23T14:28:26;18.30;99.90
17178;DHT22;8704;52.006;4.374;2023-03-23T14:30:54;18.20;99.90
17178;DHT22;8704;52.006;4.374;2023-03-23T14:33:25;18.40;99.90
17178;DHT22;8704;52.006;4.374;2023-03-23T14:35:52;18.70;99.90
17178;DHT22;8704;52.006;4.374;2023-03-23T14:38:22;19.00;99.90
17178;DHT22;8704;52.006;4.374;2023-03-23T14:40:52;18.80;99.90
17178;DHT22;8704;52.006;4.374;2023-03-23T14:43:21;18.90;99.90
17178;DHT22;8704;52.006;4.374;2023-03-23T14:45:51;19.00;99.90
17178;DHT22;8704;52.006;4.374;2023-03-23T14:48:20;19.20;99.90
17178;DHT22;8704;52.006;4.374;2023-03-23T14:50:55;19.10;99.90
17178;DHT22;8704;52.006;4.374;2023-03-23T14:53:24;19.30;99.90
17178;DHT22;8704;52.006;4.374;2023-03-23T14:55:54;19.30;99.90
17178;DHT22;8704;52.006;4.374;2023-03-23T14:58:23;19.40;99.90
17178;DHT22;8704;52.006;4.374;2023-03-23T15:00:54;19.50;99.90
17178;DHT22;8704;52.006;4.374;2023-03-23T15:03:25;19.30;99.90
17178;DHT22;8704;52.006;4.374;2023-03-23T15:05:57;19.40;99.90
17178;DHT22;8704;52.006;4.374;2023-03-23T15:08:26;19.70;99.90
17178;DHT22;8704;52.006;4.374;2023-03-23T15:11:03;19.80;99.90
17178;DHT22;8704;52.006;4.374;2023-03-23T15:13:31;19.70;99.90
17178;DHT22;8704;52.006;4.374;2023-03-23T15:16:06;19.80;99.90
17178;DHT22;8704;52.006;4.374;2023-03-23T15:18:36;19.80;99.90
17178;DHT22;8704;52.006;4.374;2023-03-23T15:21:20;19.80;99.90
17178;DHT22;8704;52.006;4.374;2023-03-23T15:23:48;20.00;99.90
17178;DHT22;8704;52.006;4.374;2023-03-23T15:26:32;20.30;99.90
17178;DHT22;8704;52.006;4.374;2023-03-23T15:29:13;20.60;99.90
17178;DHT22;8704;52.006;4.374;2023-03-23T15:31:42;20.80;99.90
17178;DHT22;8704;52.006;4.374;2023-03-23T15:34:25;20.30;99.90
17178;DHT22;8704;52.006;4.374;2023-03-23T15:37:00;20.00;99.90
17178;DHT22;8704;52.006;4.374;2023-03-23T15:39:28;20.00;99.90
17178;DHT22;8704;52.006;4.374;2023-03-23T15:41:56;20.20;99.90
17178;DHT22;8704;52.006;4.374;2023-03-23T15:44:33;20.00;99.90
17178;DHT22;8704;52.006;4.374;2023-03-23T15:47:13;20.00;99.90
17178;DHT22;8704;52.006;4.374;2023-03-23T15:49:42;20.20;99.90
17178;DHT22;8704;52.006;4.374;2023-03-23T15:52:12;20.60;99.90
17178;DHT22;8704;52.006;4.374;2023-03-23T15:54:46;20.30;99.90
17178;DHT22;8704;52.006;4.374;2023-03-23T15:57:14;19.80;99.90
17178;DHT22;8704;52.006;4.374;2023-03-23T15:59:41;19.60;99.90
17178;DHT22;8704;52.006;4.374;2023-03-23T16:02:17;19.80;99.90
17178;DHT22;8704;52.006;4.374;2023-03-23T16:04:46;19.50;99.90
17178;DHT22;8704;52.006;4.374;2023-03-23T16:07:17;19.50;99.90
17178;DHT22;8704;52.006;4.374;2023-03-23T16:09:46;19.50;99.90
17178;DHT22;8704;52.006;4.374;2023-03-23T16:12:15;19.20;99.90
17178;DHT22;8704;52.006;4.374;2023-03-23T16:14:43;19.10;99.90
17178;DHT22;8704;52.006;4.374;2023-03-23T16:17:15;18.90;99.90
17178;DHT22;8704;52.006;4.374;2023-03-23T16:19:44;18.90;99.90